Time;durP1;ratioP1;P1;durP2;ratioP2;P2;SDS_P1;SDS_P2;PMS_P1;PMS_P2;Temp;Humidity;BMP_temperature;BMP_pressure;BME280_temperature;BME280_humidity;BME280_pressure;Samples;Min_cycle;Max_cycle;Signal;HPM_P1;HPM_P2
2021/12/01 00:01:40;;;;;;;25.15;9.07;;;;;;;7.53;61.76;99496.84;4793216;29;120492;-78
2021/12/01 00:04:06;;;;;;;28.27;7.80;;;;;;;7.55;61.10;99490.94;4805870;29;119773;-79
2021/12/01 00:06:32;;;;;;;11.23;3.25;;;;;;;7.56;61.84;99478.81;4789573;29;119809;-78
2021/12/01 00:08:58;;;;;;;34.28;8.98;;;;;;;7.63;61.36;99483.97;4791509;29;119870;-79
2021/12/01 00:11:24;;;;;;;57.38;15.77;;;;;;;7.62;61.22;99472.28;4790390;29;120301;-79
2021/12/01 00:13:50;;;;;;;20.58;5.43;;;;;;;7.67;61.48;99468.19;4801810;29;119895;-79
2021/12/01 00:16:16;;;;;;;49.25;15.68;;;;;;;7.69;61.35;99449.38;4770295;29;122977;-79
2021/12/01 00:18:41;;;;;;;27.30;7.70;;;;;;;7.63;61.86;99432.88;4757935;29;123265;-79
2021/12/01 00:21:07;;;;;;;25.88;7.93;;;;;;;7.73;61.94;99428.13;4762599;29;119802;-79
2021/12/01 00:23:33;;;;;;;57.47;19.85;;;;;;;7.80;61.75;99425.06;4772834;29;122794;-79
2021/12/01 00:26:00;;;;;;;17.73;6.03;;;;;;;7.83;61.27;99426.13;4789530;29;120086;-79
2021/12/01 00:28:26;;;;;;;36.88;12.45;;;;;;;7.80;60.90;99427.78;4787975;29;121662;-78
2021/12/01 00:30:53;;;;;;;67.63;25.48;;;;;;;7.80;61.30;99418.84;4787625;29;120322;-79
2021/12/01 00:33:22;;;;;;;136.90;49.75;;;;;;;7.73;61.46;99406.28;4788432;29;119776;-79
2021/12/01 00:35:56;;;;;;;28.75;9.45;;;;;;;7.77;61.27;99409.59;4787489;29;122403;-79
2021/12/01 00:38:23;;;;;;;21.98;7.93;;;;;;;7.83;61.36;99412.47;4773142;29;123273;-79
2021/12/01 00:40:49;;;;;;;50.22;23.45;;;;;;;7.85;61.35;99401.84;4787423;29;120233;-79
2021/12/01 00:43:17;;;;;;;25.02;8.82;;;;;;;7.81;61.09;99390.34;4790293;29;122931;-77
2021/12/01 00:46:36;;;;;;;34.25;12.70;;;;;;;7.85;61.54;99388.19;4787029;29;121279;-77
2021/12/01 00:48:37;;;;;;;14.45;4.20;;;;;;;7.87;61.09;99375.59;4785082;29;121925;-79
2021/12/01 00:51:03;;;;;;;19.80;5.28;;;;;;;7.86;61.18;99370.59;4785469;29;123048;-79
2021/12/01 00:53:28;;;;;;;20.83;4.38;;;;;;;7.83;61.96;99360.63;4771814;29;120164;-79
2021/12/01 00:55:54;;;;;;;20.08;4.80;;;;;;;7.93;61.68;99360.09;4789501;29;119807;-78
2021/12/01 00:58:21;;;;;;;21.17;8.73;;;;;;;7.88;61.76;99343.59;4798778;29;119833;-79
2021/12/01 01:00:49;;;;;;;47.60;22.48;;;;;;;7.92;61.43;99342.19;4787400;29;120264;-79
2021/12/01 01:03:19;;;;;;;38.72;14.25;;;;;;;7.90;61.64;99328.25;4785914;29;122791;-78
2021/12/01 01:05:45;;;;;;;44.88;19.73;;;;;;;8.00;61.89;99328.94;4759949;29;122911;-79
2021/12/01 01:08:10;;;;;;;15.93;4.40;;;;;;;8.01;61.71;99323.03;4773551;29;123180;-79
2021/12/01 01:18:47;;;;;;;15.50;2.88;;;;;;;8.07;61.88;99271.28;4784822;29;119888;-79
2021/12/01 01:21:14;;;;;;;13.43;2.53;;;;;;;8.15;61.37;99269.69;4799988;29;120360;-79
2021/12/01 01:23:40;;;;;;;14.73;2.60;;;;;;;8.16;61.96;99267.69;4755455;29;121555;-79
2021/12/01 01:26:09;;;;;;;12.68;3.88;;;;;;;8.16;62.22;99254.03;4776797;29;123376;-79
2021/12/01 01:28:35;;;;;;;16.65;3.10;;;;;;;8.19;62.39;99245.66;4807315;29;119951;-79
2021/12/01 01:31:02;;;;;;;16.98;3.30;;;;;;;8.15;62.01;99233.41;4789962;29;119731;-79
2021/12/01 01:33:28;;;;;;;14.60;2.75;;;;;;;8.19;62.63;99234.75;4791304;29;119612;-78
2021/12/01 01:35:54;;;;;;;16.27;3.00;;;;;;;8.29;62.44;99243.63;4779207;29;121650;-79
2021/12/01 01:38:20;;;;;;;13.68;2.97;;;;;;;8.29;62.73;99228.00;4776044;29;123293;-79
2021/12/01 01:40:48;;;;;;;17.02;2.97;;;;;;;8.24;62.65;99216.94;4763939;29;119767;-79
2021/12/01 01:43:17;;;;;;;9.65;3.20;;;;;;;8.20;62.64;99208.19;4763868;29;121762;-78
2021/12/01 01:45:43;;;;;;;11.05;2.67;;;;;;;8.24;62.19;99211.47;4794748;29;124838;-79
2021/12/01 01:48:11;;;;;;;24.92;3.90;;;;;;;8.24;61.97;99201.31;4793816;29;119734;-79
2021/12/01 01:50:40;;;;;;;14.02;3.63;;;;;;;8.25;62.16;99202.06;4779759;29;121701;-79
2021/12/01 01:53:20;;;;;;;16.70;3.22;;;;;;;8.19;62.58;99191.03;4794209;29;119569;-78
2021/12/01 01:55:49;;;;;;;15.18;3.20;;;;;;;8.21;62.29;99182.38;4806570;29;124469;-79
2021/12/01 01:58:15;;;;;;;18.45;3.92;;;;;;;8.16;62.79;99181.06;4771989;29;122875;-78
2021/12/01 02:00:51;;;;;;;15.70;3.80;;;;;;;8.18;62.61;99167.69;4778321;29;120701;-79
2021/12/01 02:03:22;;;;;;;15.60;4.07;;;;;;;8.21;62.77;99168.72;4776612;29;121689;-79
2021/12/01 02:05:57;;;;;;;15.65;4.20;;;;;;;8.19;63.07;99168.44;4794991;29;120174;-79
2021/12/01 02:08:37;;;;;;;17.23;4.38;;;;;;;8.16;63.50;99156.47;4775177;29;122008;-78
2021/12/01 02:11:10;;;;;;;15.48;3.70;;;;;;;8.21;63.20;99166.00;4794631;29;120230;-78
2021/12/01 02:13:40;;;;;;;19.38;4.15;;;;;;;8.21;64.00;99147.63;4793058;29;119578;-77
2021/12/01 02:16:06;;;;;;;18.05;4.07;;;;;;;8.18;63.25;99139.63;4779026;29;122231;-78
2021/12/01 02:18:36;;;;;;;18.40;4.00;;;;;;;8.24;64.14;99143.19;4776333;29;121255;-78
2021/12/01 02:21:01;;;;;;;23.38;4.90;;;;;;;8.26;63.77;99135.28;4791084;29;119842;-78
2021/12/01 02:23:28;;;;;;;17.88;4.10;;;;;;;8.30;63.94;99130.41;4790673;29;120805;-78
2021/12/01 02:25:53;;;;;;;20.17;3.97;;;;;;;8.28;63.79;99110.97;4791587;29;119770;-79
2021/12/01 02:28:22;;;;;;;20.67;3.58;;;;;;;8.28;64.01;99100.06;4793748;29;119505;-79
2021/12/01 02:30:49;;;;;;;24.13;4.47;;;;;;;8.24;64.30;99078.41;4780248;29;121968;-76
2021/12/01 02:33:14;;;;;;;15.05;3.83;;;;;;;8.28;64.41;99078.19;4783712;29;119757;-78
2021/12/01 02:35:40;;;;;;;17.17;3.50;;;;;;;8.30;63.83;99070.31;4794575;29;122471;-77
2021/12/01 02:38:06;;;;;;;18.83;4.18;;;;;;;8.32;64.77;99065.88;4795400;29;123449;-78
2021/12/01 02:40:33;;;;;;;16.45;3.83;;;;;;;8.32;64.33;99065.88;4781056;29;120178;-78
2021/12/01 02:42:59;;;;;;;22.05;5.18;;;;;;;8.31;64.09;99039.78;4779518;29;119781;-77
2021/12/01 02:45:24;;;;;;;15.93;3.83;;;;;;;8.36;64.03;99048.56;4779411;29;123179;-77
2021/12/01 02:47:50;;;;;;;14.73;3.78;;;;;;;8.38;64.35;99049.59;4813197;29;120286;-77
2021/12/01 02:50:16;;;;;;;18.60;3.90;;;;;;;8.38;64.40;99035.94;4794629;29;120359;-77
2021/12/01 02:52:43;;;;;;;15.80;3.63;;;;;;;8.38;64.84;99022.28;4797043;29;121597;-77
2021/12/01 02:55:17;;;;;;;16.15;3.50;;;;;;;8.36;64.72;99011.06;4802300;29;119765;-77
2021/12/01 02:57:47;;;;;;;15.52;3.38;;;;;;;8.32;64.51;98996.84;4794994;29;119828;-77
2021/12/01 03:00:19;;;;;;;20.55;4.25;;;;;;;8.37;65.11;98989.97;4796227;29;119931;-77
2021/12/01 03:02:45;;;;;;;14.73;3.47;;;;;;;8.37;65.19;98973.56;4796387;29;119707;-77
2021/12/01 03:05:15;;;;;;;14.88;3.65;;;;;;;8.30;64.37;98950.13;4767252;29;121975;-77
2021/12/01 03:07:43;;;;;;;14.98;3.75;;;;;;;8.39;64.82;98955.47;4780218;29;119535;-77
2021/12/01 03:10:09;;;;;;;18.40;3.92;;;;;;;8.39;64.91;98941.81;4797065;29;120393;-76
2021/12/01 03:12:38;;;;;;;17.33;4.72;;;;;;;8.41;64.76;98933.16;4793987;29;123291;-77
2021/12/01 03:15:10;;;;;;;14.95;4.47;;;;;;;8.44;64.96;98927.47;4780129;29;119630;-77
2021/12/01 03:17:37;;;;;;;16.65;4.68;;;;;;;8.45;65.32;98920.78;4783443;29;120509;-77
2021/12/01 03:20:08;;;;;;;20.77;4.55;;;;;;;8.42;65.64;98908.06;4796041;29;120159;-77
2021/12/01 03:22:34;;;;;;;17.80;4.40;;;;;;;8.43;65.26;98898.66;4779023;29;121533;-77
2021/12/01 03:24:59;;;;;;;15.90;4.13;;;;;;;8.47;65.62;98893.72;4794208;29;120468;-77
2021/12/01 03:27:28;;;;;;;17.20;4.25;;;;;;;8.46;65.58;98880.53;4797513;29;119890;-76
2021/12/01 03:29:54;;;;;;;14.27;4.03;;;;;;;8.46;65.69;98869.63;4793858;29;120996;-77
2021/12/01 03:32:20;;;;;;;13.73;3.90;;;;;;;8.53;65.95;98880.91;4795281;29;119706;-76
2021/12/01 03:34:46;;;;;;;14.23;4.25;;;;;;;8.55;65.57;98864.03;4781180;29;119641;-77
2021/12/01 03:37:12;;;;;;;15.27;3.75;;;;;;;8.51;65.85;98842.34;4795342;29;121782;-77
2021/12/01 03:39:38;;;;;;;15.27;6.20;;;;;;;8.56;65.75;98830.00;4798620;29;123111;-77
2021/12/01 03:42:06;;;;;;;14.63;5.28;;;;;;;8.54;66.07;98819.56;4778618;29;121691;-76
2021/12/01 03:44:35;;;;;;;12.57;4.05;;;;;;;8.58;66.43;98811.16;4781142;29;122210;-76
2021/12/01 03:47:00;;;;;;;13.52;4.78;;;;;;;8.55;66.29;98791.00;4795122;29;120104;-76
2021/12/01 03:49:26;;;;;;;13.68;4.90;;;;;;;8.49;66.74;98771.03;4780053;29;121223;-77
2021/12/01 03:51:52;;;;;;;15.23;5.55;;;;;;;8.56;66.87;98776.09;4813258;29;120724;-76
2021/12/01 03:54:18;;;;;;;13.00;5.00;;;;;;;8.55;66.88;98760.19;4775691;29;119639;-76
2021/12/01 03:56:44;;;;;;;13.50;5.68;;;;;;;8.57;67.04;98755.00;4789726;29;121786;-77
2021/12/01 03:59:09;;;;;;;14.20;5.05;;;;;;;8.62;67.03;98757.03;4780153;29;122716;-76
2021/12/01 04:01:35;;;;;;;12.20;5.05;;;;;;;8.65;67.51;98738.91;4797755;29;119754;-76
2021/12/01 04:04:01;;;;;;;12.50;4.95;;;;;;;8.59;67.15;98725.19;4792597;29;119895;-76
2021/12/01 04:06:28;;;;;;;13.88;4.78;;;;;;;8.67;67.41;98714.56;4781540;29;119855;-76
2021/12/01 04:08:54;;;;;;;12.05;4.57;;;;;;;8.67;67.76;98720.03;4780139;29;121843;-76
2021/12/01 04:11:21;;;;;;;13.70;5.00;;;;;;;8.70;67.46;98702.66;4762624;29;122628;-76
2021/12/01 04:13:51;;;;;;;10.57;5.32;;;;;;;8.71;67.30;98682.31;4780447;29;121516;-75
2021/12/01 04:16:17;;;;;;;13.48;4.75;;;;;;;8.73;67.53;98682.56;4780551;29;122289;-76
2021/12/01 04:18:43;;;;;;;12.90;5.15;;;;;;;8.78;67.65;98673.69;4810320;29;123151;-76
2021/12/01 04:21:09;;;;;;;9.40;4.55;;;;;;;8.81;67.63;98665.25;4784388;29;120056;-76
2021/12/01 04:23:35;;;;;;;10.60;5.00;;;;;;;8.88;67.72;98659.31;4779559;29;119765;-76
2021/12/01 04:26:01;;;;;;;10.48;4.68;;;;;;;8.88;67.48;98642.19;4779575;29;119485;-77
2021/12/01 04:28:28;;;;;;;11.15;4.70;;;;;;;8.88;67.94;98631.25;4793755;29;119810;-76
2021/12/01 04:30:53;;;;;;;8.45;4.57;;;;;;;8.99;68.11;98634.06;4778983;29;122801;-77
2021/12/01 04:33:20;;;;;;;12.25;4.53;;;;;;;9.05;67.47;98626.63;4763381;29;119874;-77
2021/12/01 04:35:48;;;;;;;7.45;4.00;;;;;;;9.06;67.48;98600.78;4794494;29;119811;-76
2021/12/01 04:38:14;;;;;;;12.48;5.10;;;;;;;9.10;67.35;98575.94;4795625;29;122766;-77
2021/12/01 04:40:40;;;;;;;10.05;4.78;;;;;;;9.13;67.32;98570.22;4792473;29;120059;-76
2021/12/01 04:43:05;;;;;;;9.57;4.97;;;;;;;9.07;67.46;98560.50;4781595;29;122666;-77
2021/12/01 04:45:36;;;;;;;10.73;5.07;;;;;;;9.13;67.94;98567.50;4796481;29;120163;-76
2021/12/01 04:48:05;;;;;;;10.77;5.28;;;;;;;9.15;67.53;98547.84;4792789;29;121731;-76
2021/12/01 04:50:33;;;;;;;8.88;5.45;;;;;;;9.14;67.74;98532.69;4793547;29;123015;-76
2021/12/01 04:52:59;;;;;;;10.68;5.55;;;;;;;9.13;67.36;98523.72;4796246;29;120285;-75
2021/12/01 04:55:26;;;;;;;10.30;5.38;;;;;;;9.14;67.28;98517.03;4795782;29;120672;-76
2021/12/01 04:57:53;;;;;;;9.73;5.53;;;;;;;9.14;67.58;98500.63;4806249;29;120453;-76
2021/12/01 05:00:26;;;;;;;9.23;5.55;;;;;;;9.26;68.06;98511.59;4779980;29;120557;-77
2021/12/01 05:02:52;;;;;;;9.10;5.25;;;;;;;9.28;67.63;98477.03;4795195;29;122293;-76
2021/12/01 05:05:18;;;;;;;9.20;5.03;;;;;;;9.28;67.65;98471.56;4811311;29;120869;-75
2021/12/01 05:07:44;;;;;;;10.60;5.40;;;;;;;9.26;67.70;98470.56;4762478;29;121848;-76
2021/12/01 05:10:11;;;;;;;8.18;5.10;;;;;;;9.32;68.04;98460.38;4794096;29;123481;-76
2021/12/01 05:12:38;;;;;;;10.15;5.05;;;;;;;9.33;67.98;98462.63;4776462;29;119947;-76
2021/12/01 05:15:05;;;;;;;9.23;5.70;;;;;;;9.34;68.20;98461.38;4792806;29;119497;-76
2021/12/01 05:17:31;;;;;;;6.95;5.53;;;;;;;9.32;68.03;98438.50;4794709;29;122208;-76
2021/12/01 05:19:57;;;;;;;9.57;5.50;;;;;;;9.38;67.90;98437.25;4763923;29;120444;-77
2021/12/01 05:22:23;;;;;;;10.75;5.47;;;;;;;9.40;68.38;98421.09;4760594;29;121663;-76
2021/12/01 05:24:49;;;;;;;8.45;6.25;;;;;;;9.33;68.30;98399.69;4791430;29;122638;-76
2021/12/01 05:27:14;;;;;;;10.80;5.60;;;;;;;9.35;68.62;98388.25;4798179;29;119695;-76
2021/12/01 05:29:40;;;;;;;6.28;4.90;;;;;;;9.47;68.58;98395.25;4793192;29;122958;-76
2021/12/01 05:32:06;;;;;;;7.00;4.88;;;;;;;9.49;68.60;98368.13;4789593;29;119507;-76
2021/12/01 05:34:32;;;;;;;8.05;5.90;;;;;;;9.57;69.13;98358.16;4789868;29;121786;-76
2021/12/01 05:37:00;;;;;;;6.75;5.55;;;;;;;9.65;69.03;98350.91;4762667;29;122929;-76
2021/12/01 05:39:28;;;;;;;9.82;6.47;;;;;;;9.65;68.78;98329.03;4764304;29;120339;-76
2021/12/01 05:41:54;;;;;;;9.15;6.75;;;;;;;9.70;68.85;98325.56;4793515;29;119935;-76
2021/12/01 05:44:20;;;;;;;12.30;7.80;;;;;;;9.74;68.62;98317.81;4790587;29;123146;-76
2021/12/01 05:46:46;;;;;;;12.73;7.60;;;;;;;9.79;68.93;98316.31;4794507;29;120078;-76
2021/12/01 05:49:11;;;;;;;11.05;8.07;;;;;;;9.78;69.19;98296.41;4781863;29;124040;-76
2021/12/01 05:51:37;;;;;;;12.52;8.88;;;;;;;9.88;68.81;98280.44;4763168;29;119684;-76
2021/12/01 05:54:03;;;;;;;12.52;8.73;;;;;;;9.95;68.83;98282.69;4778601;29;121592;-75
2021/12/01 05:56:30;;;;;;;10.55;8.32;;;;;;;10.00;68.94;98273.69;4809615;29;120123;-76
2021/12/01 05:58:56;;;;;;;11.50;7.57;;;;;;;10.03;68.99;98278.16;4776523;29;120274;-76
2021/12/01 06:01:22;;;;;;;11.73;8.07;;;;;;;10.04;69.17;98260.47;4779438;29;121477;-76
2021/12/01 06:03:48;;;;;;;10.57;7.30;;;;;;;10.01;69.23;98249.78;4762459;29;122556;-76
2021/12/01 06:06:14;;;;;;;12.18;7.80;;;;;;;10.02;69.34;98235.59;4794559;29;120270;-76
2021/12/01 06:08:40;;;;;;;11.27;7.88;;;;;;;10.04;69.34;98221.38;4777571;29;121862;-76
2021/12/01 06:11:06;;;;;;;11.02;7.18;;;;;;;10.09;69.40;98224.09;4782896;29;121121;-76
2021/12/01 06:13:32;;;;;;;10.40;7.45;;;;;;;10.16;69.39;98231.78;4791767;29;119543;-76
2021/12/01 06:15:58;;;;;;;10.48;7.68;;;;;;;10.11;68.99;98209.91;4779044;29;123502;-75
2021/12/01 06:18:24;;;;;;;9.88;7.07;;;;;;;10.20;69.45;98201.41;4775639;29;120463;-76
2021/12/01 06:20:50;;;;;;;9.40;6.93;;;;;;;10.22;69.31;98198.16;4777330;29;123942;-76
2021/12/01 06:23:16;;;;;;;9.60;6.70;;;;;;;10.22;69.84;98182.47;4791876;29;122882;-76
2021/12/01 06:25:42;;;;;;;8.05;6.18;;;;;;;10.24;69.75;98177.25;4794680;29;120210;-76
2021/12/01 06:28:08;;;;;;;7.68;5.93;;;;;;;10.29;69.76;98170.97;4776994;29;121638;-76
2021/12/01 06:30:36;;;;;;;9.43;5.57;;;;;;;10.34;69.73;98170.19;4796323;29;119782;-75
2021/12/01 06:33:03;;;;;;;8.52;5.97;;;;;;;10.37;69.76;98165.69;4779037;29;120810;-75
2021/12/01 06:35:29;;;;;;;9.00;6.18;;;;;;;10.38;69.74;98156.94;4791850;29;119874;-76
2021/12/01 06:37:55;;;;;;;7.70;5.68;;;;;;;10.42;69.85;98157.44;4792293;29;122185;-75
2021/12/01 06:40:23;;;;;;;7.43;5.55;;;;;;;10.47;70.09;98147.69;4793568;29;121108;-76
2021/12/01 06:42:48;;;;;;;6.80;5.22;;;;;;;10.48;70.00;98124.50;4777847;29;122885;-76
2021/12/01 06:45:16;;;;;;;6.97;5.47;;;;;;;10.54;70.13;98118.97;4807881;29;120327;-76
2021/12/01 06:47:43;;;;;;;6.80;5.43;;;;;;;10.58;70.07;98100.25;4793322;29;119828;-75
2021/12/01 06:50:10;;;;;;;7.18;5.35;;;;;;;10.65;69.91;98107.94;4793283;29;119786;-76
2021/12/01 06:52:38;;;;;;;7.95;5.18;;;;;;;10.72;69.99;98101.88;4779818;29;120319;-76
2021/12/01 06:55:04;;;;;;;6.88;4.93;;;;;;;10.70;69.98;98085.94;4806208;29;119870;-76
2021/12/01 06:57:30;;;;;;;8.77;4.80;;;;;;;10.77;69.83;98074.38;4809448;29;119602;-76
2021/12/01 06:59:56;;;;;;;6.82;4.90;;;;;;;10.79;70.07;98071.13;4777294;29;122362;-76
2021/12/01 07:02:22;;;;;;;4.88;4.22;;;;;;;10.82;70.24;98061.13;4790791;29;122940;-76
2021/12/01 07:04:48;;;;;;;5.38;4.38;;;;;;;10.90;70.15;98062.06;4779887;29;120249;-76
2021/12/01 07:07:13;;;;;;;5.60;3.92;;;;;;;10.92;70.03;98049.31;4792411;29;121663;-76
2021/12/01 07:09:40;;;;;;;5.82;3.70;;;;;;;10.98;69.83;98052.00;4775814;29;122738;-75
2021/12/01 07:12:06;;;;;;;5.13;3.72;;;;;;;11.01;69.94;98043.47;4779105;29;119690;-76
2021/12/01 07:14:34;;;;;;;4.32;3.45;;;;;;;11.07;70.04;98035.91;4795002;29;121507;-76
2021/12/01 07:17:00;;;;;;;4.22;3.28;;;;;;;11.08;69.29;98023.66;4794041;29;120925;-75
2021/12/01 07:19:35;;;;;;;4.38;3.20;;;;;;;11.05;69.80;98002.78;4795240;29;121693;-76
2021/12/01 07:22:00;;;;;;;3.35;2.83;;;;;;;11.08;69.43;98012.69;4779611;29;123244;-76
2021/12/01 07:24:29;;;;;;;4.28;3.00;;;;;;;11.08;69.80;97999.00;4794812;29;119874;-76
2021/12/01 07:26:55;;;;;;;3.58;2.70;;;;;;;11.02;69.76;97992.09;4764811;29;122041;-75
2021/12/01 07:29:21;;;;;;;3.45;2.72;;;;;;;11.07;69.89;97994.03;4790404;29;122707;-75
2021/12/01 07:31:48;;;;;;;4.07;2.65;;;;;;;11.04;69.49;97984.84;4789655;29;120069;-76
2021/12/01 07:34:15;;;;;;;3.83;2.40;;;;;;;11.07;69.90;97970.06;4791409;29;119889;-76
2021/12/01 07:36:46;;;;;;;4.00;2.70;;;;;;;11.05;70.00;97966.38;4766890;29;123627;-75
2021/12/01 07:39:12;;;;;;;3.38;2.78;;;;;;;11.09;69.87;97961.31;4789328;29;119761;-75
2021/12/01 07:41:39;;;;;;;3.70;2.60;;;;;;;11.11;70.11;97955.31;4792955;29;121009;-75
2021/12/01 07:44:06;;;;;;;4.35;2.60;;;;;;;11.15;70.26;97953.03;4808974;29;119807;-75
2021/12/01 07:46:34;;;;;;;3.38;2.35;;;;;;;11.19;70.23;97940.50;4793990;29;122196;-75
2021/12/01 07:49:00;;;;;;;3.67;2.85;;;;;;;11.16;70.18;97925.09;4789106;29;123055;-76
2021/12/01 07:51:26;;;;;;;3.90;3.00;;;;;;;11.25;70.54;97932.19;4793926;29;119694;-76
2021/12/01 07:53:54;;;;;;;3.70;2.78;;;;;;;11.22;70.25;97922.25;4790081;29;122298;-76
2021/12/01 07:56:19;;;;;;;5.05;3.35;;;;;;;11.27;70.17;97913.22;4807685;29;119843;-75
2021/12/01 07:58:45;;;;;;;4.65;3.28;;;;;;;11.27;70.33;97907.72;4781690;29;120432;-76
2021/12/01 08:01:11;;;;;;;4.88;3.50;;;;;;;11.33;70.30;97911.09;4791969;29;120610;-76
2021/12/01 08:03:36;;;;;;;4.95;3.55;;;;;;;11.35;70.79;97908.59;4777527;29;119870;-76
2021/12/01 08:06:05;;;;;;;4.53;3.28;;;;;;;11.43;70.77;97906.00;4774928;29;120034;-76
2021/12/01 08:08:31;;;;;;;4.88;3.40;;;;;;;11.43;71.09;97903.97;4775988;29;122871;-76
2021/12/01 08:10:59;;;;;;;6.03;3.70;;;;;;;11.54;70.92;97895.56;4769814;29;119614;-76
2021/12/01 08:13:25;;;;;;;4.90;4.07;;;;;;;11.57;71.19;97875.28;4794621;29;120483;-76
2021/12/01 08:15:51;;;;;;;4.63;3.35;;;;;;;11.65;70.98;97870.69;4792007;29;119826;-75
2021/12/01 08:18:19;;;;;;;4.82;3.60;;;;;;;11.65;71.17;97859.72;4791396;29;120952;-76
2021/12/01 08:20:46;;;;;;;6.50;3.85;;;;;;;11.72;71.12;97857.59;4795043;29;121959;-76
2021/12/01 08:23:12;;;;;;;3.90;3.13;;;;;;;11.73;71.30;97842.59;4760470;29;124148;-76
2021/12/01 08:25:37;;;;;;;5.38;3.72;;;;;;;11.74;71.21;97844.09;4795907;29;119881;-76
2021/12/01 08:28:04;;;;;;;6.13;3.60;;;;;;;11.81;71.67;97833.22;4761302;29;123855;-76
2021/12/01 08:30:31;;;;;;;3.92;2.67;;;;;;;11.85;71.92;97830.94;4790401;29;120523;-75
2021/12/01 08:32:57;;;;;;;2.65;2.03;;;;;;;11.88;72.35;97813.41;4792745;29;122335;-76
2021/12/01 08:35:24;;;;;;;2.60;1.80;;;;;;;11.98;72.81;97819.94;4792009;29;119869;-75
2021/12/01 08:37:51;;;;;;;2.08;1.55;;;;;;;11.99;72.97;97806.94;4786097;29;121057;-75
2021/12/01 08:40:18;;;;;;;2.17;1.55;;;;;;;12.07;73.00;97794.06;4780939;29;119665;-75
2021/12/01 08:42:46;;;;;;;2.17;1.40;;;;;;;12.17;72.93;97778.59;4791709;29;119809;-74
2021/12/01 08:45:12;;;;;;;1.85;1.23;;;;;;;12.22;72.76;97794.22;4789863;29;120059;-74
2021/12/01 08:47:38;;;;;;;2.42;1.60;;;;;;;12.26;72.96;97797.41;4794408;29;121567;-74
2021/12/01 08:50:08;;;;;;;2.97;1.60;;;;;;;12.31;72.91;97786.84;4790282;29;121236;-75
2021/12/01 08:52:34;;;;;;;5.95;1.38;;;;;;;12.29;72.81;97757.13;4759184;29;120091;-75
2021/12/01 08:54:59;;;;;;;2.78;1.08;;;;;;;12.32;72.54;97775.31;4776496;29;122830;-76
2021/12/01 08:57:25;;;;;;;3.35;1.35;;;;;;;12.39;72.14;97776.66;4760886;29;119608;-75
2021/12/01 08:59:51;;;;;;;1.63;1.00;;;;;;;12.31;72.06;97754.59;4793382;29;120595;-74
2021/12/01 09:02:18;;;;;;;1.25;0.90;;;;;;;12.39;71.94;97757.44;4797347;29;119833;-75
2021/12/01 09:04:45;;;;;;;2.92;1.02;;;;;;;12.35;72.77;97746.03;4774581;29;121444;-74
2021/12/01 09:07:10;;;;;;;2.50;1.17;;;;;;;12.38;72.62;97748.44;4758602;29;122762;-75
2021/12/01 09:09:36;;;;;;;3.38;1.10;;;;;;;12.35;72.66;97741.28;4808254;29;120591;-74
2021/12/01 09:12:03;;;;;;;3.20;1.40;;;;;;;12.37;72.71;97730.47;4789377;29;121721;-75
2021/12/01 09:14:29;;;;;;;2.47;1.17;;;;;;;12.41;72.66;97735.66;4772490;29;123219;-75
2021/12/01 09:16:55;;;;;;;1.55;0.90;;;;;;;12.44;73.02;97742.81;4777064;29;120244;-75
2021/12/01 09:19:22;;;;;;;4.80;2.15;;;;;;;12.43;72.93;97735.84;4776309;29;122699;-75
2021/12/01 09:21:48;;;;;;;3.15;1.20;;;;;;;12.43;72.58;97725.59;4773748;29;123293;-75
2021/12/01 09:24:16;;;;;;;2.38;1.60;;;;;;;12.41;72.53;97727.41;4795979;29;120353;-74
2021/12/01 09:26:42;;;;;;;3.42;1.70;;;;;;;12.38;72.57;97726.47;4788881;29;119875;-74
2021/12/01 09:29:08;;;;;;;7.68;2.20;;;;;;;12.33;72.76;97721.09;4789390;29;119743;-74
2021/12/01 09:31:34;;;;;;;3.00;2.10;;;;;;;12.35;72.89;97702.78;4777685;29;121602;-74
2021/12/01 09:34:00;;;;;;;5.68;2.22;;;;;;;12.35;73.06;97707.56;4773961;29;125183;-74
2021/12/01 09:36:26;;;;;;;4.97;2.20;;;;;;;12.27;73.04;97690.97;4791142;29;121133;-74
2021/12/01 09:38:52;;;;;;;5.28;2.00;;;;;;;12.28;73.09;97697.94;4771558;29;123037;-74
2021/12/01 09:41:18;;;;;;;6.03;1.95;;;;;;;12.36;73.65;97692.53;4788602;29;120635;-75
2021/12/01 09:43:44;;;;;;;5.90;2.30;;;;;;;12.45;73.01;97697.56;4788928;29;124460;-74
2021/12/01 09:46:10;;;;;;;4.43;1.77;;;;;;;12.39;72.63;97680.47;4810756;29;122056;-75
2021/12/01 09:48:38;;;;;;;3.03;1.77;;;;;;;12.48;72.70;97680.00;4805475;29;119698;-75
2021/12/01 09:51:09;;;;;;;4.03;1.52;;;;;;;12.49;72.00;97673.22;4790560;29;121855;-74
2021/12/01 09:53:35;;;;;;;3.15;1.58;;;;;;;12.45;72.26;97665.31;4794551;29;119924;-75
2021/12/01 09:56:01;;;;;;;3.42;1.65;;;;;;;12.49;72.18;97671.22;4784743;29;120190;-74
2021/12/01 09:58:31;;;;;;;5.25;2.10;;;;;;;12.45;71.94;97650.84;4787362;29;120285;-75
2021/12/01 10:01:05;;;;;;;6.35;2.40;;;;;;;12.50;72.10;97641.72;4775294;29;122999;-73
2021/12/01 10:03:31;;;;;;;4.43;1.65;;;;;;;12.47;72.27;97646.28;4790022;29;119719;-75
2021/12/01 10:06:04;;;;;;;2.95;1.30;;;;;;;12.49;72.29;97645.75;4788891;29;119887;-75
2021/12/01 10:08:34;;;;;;;4.47;1.50;;;;;;;12.50;72.28;97636.22;4794081;29;120971;-75
2021/12/01 10:11:07;;;;;;;2.58;1.25;;;;;;;12.48;72.00;97623.00;4759599;29;121346;-74
2021/12/01 10:13:37;;;;;;;3.45;1.80;;;;;;;12.48;72.11;97627.78;4803197;29;120604;-75
2021/12/01 10:16:05;;;;;;;5.95;2.05;;;;;;;12.45;72.39;97604.84;4774092;29;121364;-75
2021/12/01 10:18:43;;;;;;;5.30;2.30;;;;;;;12.43;72.36;97579.19;4758911;29;122502;-74
2021/12/01 10:21:11;;;;;;;4.45;2.63;;;;;;;12.48;72.44;97592.03;4773565;29;122886;-75
2021/12/01 10:23:42;;;;;;;7.07;2.20;;;;;;;12.48;72.15;97572.81;4802121;29;121245;-74
2021/12/01 10:26:14;;;;;;;3.67;2.30;;;;;;;12.48;72.15;97559.06;4775994;29;120464;-74
2021/12/01 10:28:46;;;;;;;6.07;2.65;;;;;;;12.52;72.20;97559.44;4772674;29;123180;-74
2021/12/01 10:31:13;;;;;;;9.50;2.50;;;;;;;12.51;71.93;97544.22;4794068;29;120351;-74
2021/12/01 10:33:40;;;;;;;7.30;2.03;;;;;;;12.50;71.57;97526.28;4756940;29;123192;-74
2021/12/01 10:36:08;;;;;;;3.85;2.13;;;;;;;12.49;71.82;97524.78;4791442;29;119963;-74
2021/12/01 10:38:38;;;;;;;3.80;2.20;;;;;;;12.49;71.48;97513.81;4789870;29;121661;-75
2021/12/01 10:41:10;;;;;;;4.82;2.00;;;;;;;12.50;71.65;97493.28;4787628;29;121718;-75
2021/12/01 10:43:47;;;;;;;5.60;2.00;;;;;;;12.49;71.34;97478.81;4788662;29;119619;-75
2021/12/01 10:46:18;;;;;;;5.47;2.20;;;;;;;12.40;71.49;97479.31;4770021;29;120884;-75
2021/12/01 10:49:00;;;;;;;5.38;2.38;;;;;;;12.44;71.45;97471.44;4786803;29;122853;-74
2021/12/01 10:51:38;;;;;;;4.30;2.38;;;;;;;12.41;71.59;97453.31;4781131;29;119934;-75
2021/12/01 10:54:12;;;;;;;2.75;2.03;;;;;;;12.47;71.75;97450.41;4762655;29;121235;-74
2021/12/01 10:56:38;;;;;;;3.83;1.58;;;;;;;12.45;71.22;97428.22;4792451;29;119642;-74
2021/12/01 10:59:16;;;;;;;4.05;2.20;;;;;;;12.51;71.29;97420.53;4771791;29;122112;-75
2021/12/01 11:01:44;;;;;;;2.97;2.03;;;;;;;12.53;71.43;97418.00;4790809;29;122736;-75
2021/12/01 11:04:10;;;;;;;4.78;2.00;;;;;;;12.52;71.03;97405.53;4779213;29;121352;-74
2021/12/01 11:06:44;;;;;;;3.03;1.75;;;;;;;12.54;71.20;97411.25;4790047;29;121805;-75
2021/12/01 11:09:13;;;;;;;2.15;1.50;;;;;;;12.52;71.29;97400.75;4790402;29;119947;-75
2021/12/01 11:11:41;;;;;;;2.25;1.70;;;;;;;12.54;71.33;97400.25;4808853;29;119804;-75
2021/12/01 11:14:18;;;;;;;3.70;1.70;;;;;;;12.49;71.45;97393.59;4810687;29;119857;-75
2021/12/01 11:16:46;;;;;;;2.30;1.60;;;;;;;12.47;71.47;97371.41;4776585;29;120611;-75
2021/12/01 11:19:12;;;;;;;3.65;1.67;;;;;;;12.47;72.14;97379.66;4778785;29;122045;-75
2021/12/01 11:21:39;;;;;;;3.85;1.80;;;;;;;12.42;71.82;97366.09;4792211;29;120132;-75
2021/12/01 11:24:11;;;;;;;5.53;2.05;;;;;;;12.42;71.62;97360.59;4775842;29;119655;-74
2021/12/01 11:26:40;;;;;;;2.42;1.85;;;;;;;12.36;71.53;97366.25;4805448;29;122070;-74
2021/12/01 11:29:08;;;;;;;5.13;2.08;;;;;;;12.31;71.56;97347.19;4791047;29;121475;-75
2021/12/01 11:31:34;;;;;;;4.38;2.10;;;;;;;12.25;71.45;97353.53;4789899;29;119801;-76
2021/12/01 11:34:08;;;;;;;5.28;2.08;;;;;;;12.22;72.15;97338.16;4777571;29;121812;-76